createdAt,value
2022-12-29T00:01:01.276Z,11.21
2022-12-29T00:03:30.311Z,11.18
2022-12-29T00:05:58.546Z,11.27
2022-12-29T00:08:40.391Z,11.27
2022-12-29T00:11:15.994Z,11.25
2022-12-29T00:14:01.195Z,11.26
2022-12-29T00:16:28.906Z,11.25
2022-12-29T00:18:58.308Z,11.20
2022-12-29T00:21:44.648Z,11.23
2022-12-29T00:24:26.980Z,11.21
2022-12-29T00:27:17.697Z,11.21
2022-12-29T00:30:03.159Z,11.20
2022-12-29T00:32:50.798Z,11.23
2022-12-29T00:35:32.924Z,11.13
2022-12-29T00:38:23.176Z,11.21
2022-12-29T00:41:10.509Z,11.16
2022-12-29T00:43:58.197Z,11.13
2022-12-29T00:46:27.035Z,11.05
2022-12-29T00:49:12.208Z,11.03
2022-12-29T00:51:38.773Z,10.95
2022-12-29T00:54:05.383Z,10.96
2022-12-29T00:56:31.951Z,10.94
2022-12-29T00:59:06.985Z,10.97
2022-12-29T01:01:34.580Z,11.01
2022-12-29T01:04:04.082Z,11.00
2022-12-29T01:06:31.267Z,10.98
2022-12-29T01:09:16.470Z,11.00
2022-12-29T01:11:43.051Z,10.96
2022-12-29T01:14:09.722Z,10.89
2022-12-29T01:16:37.483Z,10.88
2022-12-29T01:19:06.933Z,10.95
2022-12-29T01:21:34.313Z,10.94
2022-12-29T01:24:03.546Z,10.95
2022-12-29T01:26:32.439Z,10.87
2022-12-29T01:29:00.293Z,11.01
2022-12-29T01:31:26.883Z,10.90
2022-12-29T01:33:53.530Z,10.94
2022-12-29T01:36:20.364Z,10.92
2022-12-29T01:38:49.267Z,10.93
2022-12-29T01:41:17.334Z,10.97
2022-12-29T01:43:48.813Z,11.05
2022-12-29T01:46:15.655Z,11.08
2022-12-29T01:48:44.061Z,11.05
2022-12-29T01:51:10.916Z,11.11
2022-12-29T01:53:38.165Z,11.08
2022-12-29T01:56:10.130Z,11.16
2022-12-29T01:58:40.936Z,11.21
2022-12-29T02:01:10.344Z,11.23
2022-12-29T02:03:42.088Z,11.14
2022-12-29T02:06:23.942Z,11.27
2022-12-29T02:08:53.484Z,11.28
2022-12-29T02:11:20.952Z,11.22
2022-12-29T02:13:47.633Z,11.34
2022-12-29T02:16:14.193Z,11.39
2022-12-29T02:19:01.541Z,11.41
2022-12-29T02:21:43.372Z,11.45
2022-12-29T02:24:40.923Z,11.47
2022-12-29T02:27:29.429Z,11.49
2022-12-29T02:30:08.830Z,11.52
2022-12-29T02:32:59.653Z,11.51
2022-12-29T02:36:03.445Z,11.54
2022-12-29T02:38:54.506Z,11.53
2022-12-29T02:41:29.834Z,11.52
2022-12-29T02:44:04.953Z,11.56
2022-12-29T02:47:17.481Z,11.56
2022-12-29T02:50:09.987Z,11.55
2022-12-29T02:52:45.938Z,11.57
2022-12-29T02:55:12.828Z,11.50
2022-12-29T02:57:41.518Z,11.53
2022-12-29T03:00:28.460Z,11.56
2022-12-29T03:03:05.208Z,11.59
2022-12-29T03:05:59.338Z,11.59
2022-12-29T03:08:41.640Z,11.59
2022-12-29T03:11:31.635Z,11.56
2022-12-29T03:14:20.878Z,11.49
2022-12-29T03:17:15.548Z,11.51
2022-12-29T03:19:52.517Z,11.55
2022-12-29T03:22:32.375Z,11.47
2022-12-29T03:25:13.876Z,11.54
2022-12-29T03:27:48.474Z,11.51
2022-12-29T03:30:15.890Z,11.56
2022-12-29T03:32:56.625Z,11.49
2022-12-29T03:35:27.078Z,11.44
2022-12-29T03:38:07.431Z,11.46
2022-12-29T03:40:35.505Z,11.43
2022-12-29T03:43:04.150Z,11.40
2022-12-29T03:45:30.648Z,11.39
2022-12-29T03:47:59.596Z,11.36
2022-12-29T03:50:26.132Z,11.39
2022-12-29T03:52:52.683Z,11.36
2022-12-29T03:55:19.284Z,11.39
2022-12-29T03:57:45.948Z,11.33
2022-12-29T04:00:13.201Z,11.34
2022-12-29T04:02:42.695Z,11.39
2022-12-29T04:05:09.605Z,11.40
2022-12-29T04:07:36.233Z,11.42
2022-12-29T04:10:03.164Z,11.41
2022-12-29T04:12:29.727Z,11.37
2022-12-29T04:14:56.315Z,11.43
2022-12-29T04:17:22.881Z,11.45
2022-12-29T04:19:49.611Z,11.41
2022-12-29T04:22:16.255Z,11.41
2022-12-29T04:24:44.931Z,11.40
2022-12-29T04:27:11.536Z,11.44
2022-12-29T04:29:40.412Z,11.34
2022-12-29T04:32:06.945Z,11.43
2022-12-29T04:34:34.116Z,11.33
2022-12-29T04:37:00.676Z,11.38
2022-12-29T04:39:27.275Z,11.37
2022-12-29T04:41:53.845Z,11.34
2022-12-29T04:44:22.647Z,11.33
2022-12-29T04:46:49.296Z,11.29
2022-12-29T04:49:15.954Z,11.37
2022-12-29T04:51:42.559Z,11.36
2022-12-29T04:54:11.319Z,11.31
2022-12-29T04:56:37.925Z,11.33
2022-12-29T04:59:04.567Z,11.29
2022-12-29T05:01:33.711Z,11.15
2022-12-29T05:04:00.787Z,11.15
2022-12-29T05:06:27.339Z,10.95
2022-12-29T05:08:56.405Z,10.85
2022-12-29T05:11:23.010Z,10.85
2022-12-29T05:13:49.575Z,10.77
2022-12-29T05:16:16.111Z,10.64
2022-12-29T05:18:42.719Z,10.64
2022-12-29T05:21:09.348Z,10.77
2022-12-29T05:23:35.917Z,10.76
2022-12-29T05:26:02.489Z,10.82
2022-12-29T05:28:31.501Z,10.79
2022-12-29T05:30:58.082Z,10.77
2022-12-29T05:33:27.050Z,10.86
2022-12-29T05:35:55.851Z,10.86
2022-12-29T05:38:22.532Z,10.80
2022-12-29T05:40:49.115Z,10.85
2022-12-29T05:43:15.710Z,10.79
2022-12-29T05:45:42.329Z,10.79
2022-12-29T05:48:11.087Z,10.79
2022-12-29T05:50:37.915Z,10.78
2022-12-29T05:53:04.492Z,10.81
2022-12-29T05:55:31.027Z,10.77
2022-12-29T05:57:57.662Z,10.77
2022-12-29T06:00:24.496Z,10.72
2022-12-29T06:02:51.508Z,10.76
2022-12-29T06:05:18.469Z,10.65
2022-12-29T06:07:47.466Z,10.61
2022-12-29T06:10:16.484Z,10.53
2022-12-29T06:12:43.245Z,10.54
2022-12-29T06:15:12.381Z,10.53
2022-12-29T06:17:39.002Z,10.52
2022-12-29T06:20:08.350Z,10.57
2022-12-29T06:22:35.266Z,10.59
2022-12-29T06:25:05.428Z,10.64
2022-12-29T06:27:34.641Z,10.64
2022-12-29T06:30:01.271Z,10.47
2022-12-29T06:32:28.025Z,10.46
2022-12-29T06:34:56.646Z,10.47
2022-12-29T06:37:23.177Z,10.41
2022-12-29T06:39:52.136Z,10.23
2022-12-29T06:42:20.898Z,10.32
2022-12-29T06:44:47.515Z,10.37
2022-12-29T06:47:16.422Z,10.43
2022-12-29T06:49:43.073Z,10.46
2022-12-29T06:52:12.914Z,10.58
2022-12-29T06:54:42.408Z,10.64
2022-12-29T06:57:13.798Z,10.69
2022-12-29T06:59:45.279Z,10.69
2022-12-29T07:02:12.692Z,10.70
2022-12-29T07:04:39.365Z,10.73
2022-12-29T07:07:06.025Z,10.67
2022-12-29T07:09:32.772Z,10.78
2022-12-29T07:11:59.566Z,10.78
2022-12-29T07:14:26.127Z,10.79
2022-12-29T07:16:54.920Z,10.80
2022-12-29T07:19:21.560Z,10.81
2022-12-29T07:21:48.477Z,10.83
2022-12-29T07:24:15.070Z,10.84
2022-12-29T07:26:42.810Z,10.75
2022-12-29T07:29:09.374Z,10.87
2022-12-29T07:31:35.951Z,10.78
2022-12-29T07:34:02.598Z,10.74
2022-12-29T07:36:34.645Z,10.77
2022-12-29T07:39:02.001Z,10.67
2022-12-29T07:41:28.576Z,10.58
2022-12-29T07:43:55.350Z,10.38
2022-12-29T07:46:56.635Z,10.45
2022-12-29T07:49:10.855Z,10.51
2022-12-29T07:51:39.954Z,10.53
2022-12-29T07:54:06.496Z,10.57
2022-12-29T07:56:33.078Z,10.58
2022-12-29T07:58:59.621Z,10.61
2022-12-29T08:01:26.291Z,10.66
2022-12-29T08:03:57.252Z,10.65
2022-12-29T08:06:24.421Z,10.65
2022-12-29T08:08:53.427Z,10.56
2022-12-29T08:11:20.375Z,10.54
2022-12-29T08:13:47.020Z,10.48
2022-12-29T08:16:15.878Z,10.34
2022-12-29T08:18:42.641Z,10.49
2022-12-29T08:21:09.397Z,10.47
2022-12-29T08:23:35.959Z,10.46
2022-12-29T08:26:08.385Z,10.47
2022-12-29T08:28:34.988Z,10.49
2022-12-29T08:31:02.992Z,10.59
2022-12-29T08:33:30.350Z,10.66
2022-12-29T08:36:06.489Z,10.67
2022-12-29T08:38:33.591Z,10.71
2022-12-29T08:41:02.047Z,10.70
2022-12-29T08:43:29.458Z,10.78
2022-12-29T08:45:57.157Z,10.79
2022-12-29T08:48:32.230Z,10.75
2022-12-29T08:51:01.674Z,10.84
2022-12-29T08:53:28.399Z,10.86
2022-12-29T08:56:05.137Z,10.78
2022-12-29T08:58:33.167Z,10.89
2022-12-29T09:01:00.374Z,10.91
2022-12-29T09:04:03.808Z,10.87
2022-12-29T09:06:15.098Z,10.90
2022-12-29T09:08:44.804Z,10.93
2022-12-29T09:11:23.257Z,10.98
2022-12-29T09:13:50.184Z,11.01
2022-12-29T09:16:17.591Z,10.92
2022-12-29T09:18:46.842Z,11.03
2022-12-29T09:21:14.303Z,11.01
2022-12-29T09:23:41.579Z,11.06
2022-12-29T09:26:09.408Z,11.09
2022-12-29T09:28:36.321Z,10.96
2022-12-29T09:31:05.350Z,11.07
2022-12-29T09:33:34.392Z,10.94
2022-12-29T09:36:01.137Z,11.04
2022-12-29T09:38:29.179Z,11.01
2022-12-29T09:41:02.122Z,11.02
2022-12-29T09:43:47.201Z,11.02
2022-12-29T09:46:24.781Z,10.95
2022-12-29T09:49:08.922Z,10.86
2022-12-29T09:51:42.316Z,10.92
2022-12-29T09:54:55.164Z,10.91
2022-12-29T09:57:35.970Z,10.79
2022-12-29T10:00:13.222Z,10.67
2022-12-29T10:02:47.557Z,10.64
2022-12-29T10:05:25.563Z,10.48
2022-12-29T10:07:55.044Z,10.50
2022-12-29T10:10:31.130Z,10.45
2022-12-29T10:13:14.363Z,10.34
2022-12-29T10:16:21.116Z,10.43
2022-12-29T10:19:18.745Z,10.46
2022-12-29T10:21:54.315Z,10.49
2022-12-29T10:24:22.980Z,10.46
2022-12-29T10:26:52.776Z,10.46
2022-12-29T10:29:27.678Z,10.39
2022-12-29T10:32:27.840Z,10.36
2022-12-29T10:34:59.884Z,10.42
2022-12-29T10:38:02.339Z,10.51
2022-12-29T10:41:16.240Z,10.53
2022-12-29T10:43:47.775Z,10.56
2022-12-29T10:46:19.321Z,10.49
2022-12-29T10:48:47.667Z,10.49
2022-12-29T10:51:37.962Z,10.49
2022-12-29T10:54:11.827Z,10.51
2022-12-29T10:56:45.438Z,10.63
2022-12-29T10:59:17.452Z,10.72
2022-12-29T11:02:10.054Z,10.73
2022-12-29T11:04:49.182Z,10.72
2022-12-29T11:07:20.987Z,10.71
2022-12-29T11:09:55.104Z,10.71
2022-12-29T11:12:32.035Z,10.74
2022-12-29T11:15:08.554Z,10.76
2022-12-29T11:17:55.074Z,10.72
2022-12-29T11:20:39.544Z,10.70
2022-12-29T11:23:34.600Z,10.63
2022-12-29T11:26:11.912Z,10.64
2022-12-29T11:28:43.462Z,10.65
2022-12-29T11:31:11.025Z,10.63
2022-12-29T11:33:39.504Z,10.60
2022-12-29T11:36:14.775Z,10.57
2022-12-29T11:38:44.030Z,10.56
2022-12-29T11:41:20.864Z,10.63
2022-12-29T11:43:48.593Z,10.64
2022-12-29T11:46:22.673Z,10.66
2022-12-29T11:48:53.406Z,10.70
2022-12-29T11:51:44.510Z,10.86
2022-12-29T11:54:20.224Z,10.90
2022-12-29T11:56:47.367Z,10.95
2022-12-29T11:59:39.174Z,10.95
2022-12-29T12:02:21.232Z,10.93
2022-12-29T12:04:52.087Z,10.82
2022-12-29T12:07:30.694Z,10.87
2022-12-29T12:10:07.912Z,10.70
2022-12-29T12:13:15.290Z,10.85
2022-12-29T12:15:51.251Z,10.89
2022-12-29T12:18:39.180Z,11.03
2022-12-29T12:21:14.018Z,11.06
2022-12-29T12:24:04.982Z,11.14
2022-12-29T12:26:47.444Z,11.01
2022-12-29T12:29:27.472Z,11.03
2022-12-29T12:32:19.805Z,11.09
2022-12-29T12:34:47.836Z,11.18
2022-12-29T12:37:29.553Z,11.26
2022-12-29T12:39:56.107Z,11.29
2022-12-29T12:42:28.600Z,11.30
2022-12-29T12:45:25.954Z,11.26
2022-12-29T12:48:23.882Z,11.29
2022-12-29T12:51:36.142Z,11.20
2022-12-29T12:54:31.661Z,11.25
2022-12-29T12:57:12.781Z,11.11
2022-12-29T12:59:48.279Z,11.21
2022-12-29T13:02:57.007Z,11.24
2022-12-29T13:05:32.428Z,11.27
2022-12-29T13:08:17.573Z,11.19
2022-12-29T13:10:56.233Z,11.19
2022-12-29T13:13:56.660Z,11.26
2022-12-29T13:16:55.255Z,11.25
2022-12-29T13:19:27.529Z,11.23
2022-12-29T13:22:09.055Z,11.18
2022-12-29T13:24:58.807Z,11.13
2022-12-29T13:27:25.364Z,11.08
2022-12-29T13:30:03.910Z,11.02
2022-12-29T13:32:42.816Z,10.90
2022-12-29T13:35:18.384Z,10.84
2022-12-29T13:38:01.984Z,10.74
2022-12-29T13:40:35.564Z,10.67
2022-12-29T13:43:04.836Z,10.64
2022-12-29T13:45:34.279Z,10.59
2022-12-29T13:48:06.893Z,10.49
2022-12-29T13:50:39.572Z,10.46
2022-12-29T13:53:25.578Z,10.42
2022-12-29T13:56:11.183Z,10.38
2022-12-29T13:58:43.070Z,10.44
2022-12-29T14:01:16.205Z,10.44
2022-12-29T14:03:54.024Z,10.46
2022-12-29T14:06:23.886Z,10.41
2022-12-29T14:08:53.238Z,10.45
2022-12-29T14:11:31.041Z,10.44
2022-12-29T14:14:00.677Z,10.49
2022-12-29T14:16:34.096Z,10.42
2022-12-29T14:19:25.571Z,10.48
2022-12-29T14:22:13.656Z,10.46
2022-12-29T14:24:46.694Z,10.45
2022-12-29T14:27:13.207Z,10.44
2022-12-29T14:29:39.637Z,10.44
2022-12-29T14:32:21.560Z,10.42
2022-12-29T14:34:52.461Z,10.41
2022-12-29T14:37:31.128Z,10.36
2022-12-29T14:40:15.852Z,10.35
2022-12-29T14:42:43.376Z,10.27
2022-12-29T14:45:11.194Z,10.30
2022-12-29T14:47:39.887Z,10.25
2022-12-29T14:50:14.552Z,10.26
2022-12-29T14:52:54.148Z,10.22
2022-12-29T14:55:43.426Z,10.19
2022-12-29T14:58:21.859Z,10.13
2022-12-29T15:00:49.595Z,10.17
2022-12-29T15:03:24.759Z,10.12
2022-12-29T15:06:10.076Z,10.13
2022-12-29T15:08:41.525Z,10.07
2022-12-29T15:11:21.433Z,10.07
2022-12-29T15:13:49.777Z,10.07
2022-12-29T15:16:32.395Z,10.02
2022-12-29T15:18:59.999Z,9.96
2022-12-29T15:21:31.902Z,9.96
2022-12-29T15:23:58.936Z,9.86
2022-12-29T15:26:39.298Z,9.78
2022-12-29T15:29:06.246Z,9.74
2022-12-29T15:31:32.806Z,9.70
2022-12-29T15:34:13.287Z,9.68
2022-12-29T15:36:41.522Z,9.66
2022-12-29T15:39:34.766Z,9.62
2022-12-29T15:42:11.524Z,9.59
2022-12-29T15:44:44.504Z,9.51
2022-12-29T15:47:19.261Z,9.59
2022-12-29T15:49:49.813Z,9.59
2022-12-29T15:52:21.945Z,9.52
2022-12-29T15:54:54.479Z,9.52
2022-12-29T15:57:27.361Z,9.54
2022-12-29T15:59:57.733Z,9.56
2022-12-29T16:02:27.711Z,9.51
2022-12-29T16:05:17.323Z,9.56
2022-12-29T16:07:56.223Z,9.54
2022-12-29T16:10:37.286Z,9.49
2022-12-29T16:13:23.691Z,9.45
2022-12-29T16:15:53.333Z,9.35
2022-12-29T16:18:35.272Z,9.32
2022-12-29T16:21:04.445Z,9.32
2022-12-29T16:23:33.319Z,9.20
2022-12-29T16:26:00.697Z,9.23
2022-12-29T16:28:44.220Z,9.16
2022-12-29T16:31:35.084Z,9.20
2022-12-29T16:34:24.444Z,9.24
2022-12-29T16:36:59.518Z,9.22
2022-12-29T16:39:32.023Z,9.22
2022-12-29T16:41:59.046Z,9.22
2022-12-29T16:44:28.320Z,9.21
2022-12-29T16:47:06.134Z,9.17
2022-12-29T16:49:37.639Z,9.11
2022-12-29T16:52:35.234Z,9.10
2022-12-29T16:55:02.717Z,9.05
2022-12-29T16:57:37.546Z,9.01
2022-12-29T17:00:08.907Z,9.03
2022-12-29T17:02:45.659Z,8.97
2022-12-29T17:05:17.091Z,8.96
2022-12-29T17:07:44.140Z,8.90
2022-12-29T17:10:11.471Z,8.91
2022-12-29T17:12:38.140Z,8.88
2022-12-29T17:15:09.375Z,8.85
2022-12-29T17:17:42.295Z,8.81
2022-12-29T17:20:16.656Z,8.80
2022-12-29T17:22:43.531Z,8.76
2022-12-29T17:25:18.706Z,8.74
2022-12-29T17:27:58.977Z,8.69
2022-12-29T17:30:33.156Z,8.64
2022-12-29T17:33:08.832Z,8.56
2022-12-29T17:35:35.676Z,8.52
2022-12-29T17:38:02.296Z,8.44
2022-12-29T17:40:32.194Z,8.37
2022-12-29T17:43:00.359Z,8.35
2022-12-29T17:45:32.175Z,8.32
2022-12-29T17:48:01.958Z,8.31
2022-12-29T17:50:32.866Z,8.30
2022-12-29T17:53:08.758Z,8.26
2022-12-29T17:55:38.429Z,8.22
2022-12-29T17:58:32.762Z,8.16
2022-12-29T18:01:03.457Z,8.13
2022-12-29T18:03:32.399Z,8.10
2022-12-29T18:06:01.854Z,8.02
2022-12-29T18:08:31.213Z,7.96
2022-12-29T18:10:57.969Z,7.85
2022-12-29T18:13:33.715Z,7.98
2022-12-29T18:16:10.871Z,7.90
2022-12-29T18:18:39.533Z,7.96
2022-12-29T18:21:14.246Z,7.94
2022-12-29T18:23:40.770Z,7.91
2022-12-29T18:26:25.467Z,7.87
2022-12-29T18:28:53.909Z,7.79
2022-12-29T18:31:32.179Z,7.64
2022-12-29T18:34:01.372Z,7.67
2022-12-29T18:36:30.447Z,7.79
2022-12-29T18:38:57.033Z,7.79
2022-12-29T18:41:30.270Z,7.76
2022-12-29T18:43:57.768Z,7.75
2022-12-29T18:46:26.849Z,7.78
2022-12-29T18:48:53.905Z,7.73
2022-12-29T18:51:24.878Z,7.73
2022-12-29T18:53:55.370Z,7.68
2022-12-29T18:56:24.298Z,7.68
2022-12-29T18:58:51.648Z,7.67
2022-12-29T19:01:27.803Z,7.74
2022-12-29T19:03:54.792Z,7.69
2022-12-29T19:06:23.950Z,7.74
2022-12-29T19:08:50.557Z,7.71
2022-12-29T19:11:19.573Z,7.67
2022-12-29T19:13:46.224Z,7.72
2022-12-29T19:16:19.515Z,7.57
2022-12-29T19:18:53.330Z,7.72
2022-12-29T19:21:27.717Z,7.64
2022-12-29T19:23:54.267Z,7.72
2022-12-29T19:26:34.422Z,7.63
2022-12-29T19:29:01.728Z,7.72
2022-12-29T19:31:28.654Z,7.66
2022-12-29T19:33:55.275Z,7.68
2022-12-29T19:36:22.233Z,7.69
2022-12-29T19:38:51.360Z,7.61
2022-12-29T19:41:18.011Z,7.59
2022-12-29T19:43:47.054Z,7.59
2022-12-29T19:46:18.062Z,7.62
2022-12-29T19:48:49.493Z,7.60
2022-12-29T19:51:17.270Z,7.60
2022-12-29T19:53:45.557Z,7.58
2022-12-29T19:56:14.916Z,7.48
2022-12-29T19:58:47.516Z,7.44
2022-12-29T20:01:24.003Z,7.49
2022-12-29T20:03:50.759Z,7.48
2022-12-29T20:06:17.585Z,7.42
2022-12-29T20:08:44.576Z,7.38
2022-12-29T20:11:16.817Z,7.42
2022-12-29T20:13:46.308Z,7.40
2022-12-29T20:16:16.191Z,7.41
2022-12-29T20:18:43.268Z,7.32
2022-12-29T20:21:15.648Z,7.37
2022-12-29T20:23:43.280Z,7.34
2022-12-29T20:26:16.915Z,7.32
2022-12-29T20:28:43.543Z,7.30
2022-12-29T20:31:38.266Z,7.28
2022-12-29T20:34:07.436Z,7.25
2022-12-29T20:36:36.520Z,7.22
2022-12-29T20:39:06.638Z,7.19
2022-12-29T20:41:33.717Z,7.16
2022-12-29T20:44:00.862Z,7.13
2022-12-29T20:46:35.036Z,7.04
2022-12-29T20:49:08.640Z,7.11
2022-12-29T20:52:04.560Z,7.09
2022-12-29T20:54:31.706Z,7.05
2022-12-29T20:57:00.782Z,6.98
2022-12-29T20:59:28.344Z,7.04
2022-12-29T21:01:56.248Z,7.08
2022-12-29T21:04:23.114Z,7.12
2022-12-29T21:06:49.665Z,7.11
2022-12-29T21:09:16.281Z,7.09
2022-12-29T21:11:42.872Z,7.06
2022-12-29T21:14:09.657Z,7.01
2022-12-29T21:16:38.578Z,7.01
2022-12-29T21:19:05.616Z,7.04
2022-12-29T21:21:32.258Z,6.97
2022-12-29T21:24:05.452Z,6.98
2022-12-29T21:26:33.681Z,6.99
2022-12-29T21:29:01.249Z,6.91
2022-12-29T21:31:36.448Z,6.90
2022-12-29T21:34:06.621Z,6.93
2022-12-29T21:36:33.548Z,6.89
2022-12-29T21:39:00.635Z,6.93
2022-12-29T21:41:27.211Z,6.77
2022-12-29T21:44:12.347Z,6.89
2022-12-29T21:46:40.939Z,6.91
2022-12-29T21:49:08.276Z,6.90
2022-12-29T21:51:54.211Z,6.82
2022-12-29T21:54:47.601Z,6.85
2022-12-29T21:57:39.991Z,6.80
2022-12-29T22:00:27.882Z,6.80
2022-12-29T22:03:22.007Z,6.77
2022-12-29T22:06:08.578Z,6.72
2022-12-29T22:08:57.224Z,6.72
2022-12-29T22:11:42.346Z,6.62
2022-12-29T22:14:11.878Z,6.68
2022-12-29T22:16:38.564Z,6.62
2022-12-29T22:19:08.727Z,6.67
2022-12-29T22:21:35.317Z,6.72
2022-12-29T22:24:04.281Z,6.63
2022-12-29T22:26:30.970Z,6.74
2022-12-29T22:29:00.075Z,6.74
2022-12-29T22:31:30.548Z,6.68
2022-12-29T22:33:58.773Z,6.71
2022-12-29T22:36:26.615Z,6.64
2022-12-29T22:38:53.217Z,6.66
2022-12-29T22:41:23.064Z,6.66
2022-12-29T22:43:59.478Z,6.58
2022-12-29T22:46:30.978Z,6.66
2022-12-29T22:48:57.830Z,6.65
2022-12-29T22:51:24.479Z,6.58
2022-12-29T22:53:51.419Z,6.60
2022-12-29T22:56:18.232Z,6.58
2022-12-29T22:58:47.130Z,6.63
2022-12-29T23:01:16.102Z,6.61
2022-12-29T23:03:43.114Z,6.56
2022-12-29T23:06:14.895Z,6.58
2022-12-29T23:08:43.679Z,6.54
2022-12-29T23:11:12.649Z,6.55
2022-12-29T23:13:41.091Z,6.50
2022-12-29T23:16:08.197Z,6.42
2022-12-29T23:18:34.856Z,6.51
2022-12-29T23:21:01.491Z,6.51
2022-12-29T23:23:49.615Z,6.48
2022-12-29T23:26:18.653Z,6.50
2022-12-29T23:28:45.450Z,6.41
2022-12-29T23:31:12.094Z,6.35
2022-12-29T23:33:40.955Z,6.44
2022-12-29T23:36:08.164Z,6.43
2022-12-29T23:38:34.725Z,6.39
2022-12-29T23:41:01.253Z,6.39
2022-12-29T23:43:27.846Z,6.34
2022-12-29T23:45:54.471Z,6.32
2022-12-29T23:48:21.155Z,6.31
2022-12-29T23:50:47.808Z,6.36
2022-12-29T23:53:16.706Z,6.32
2022-12-29T23:55:43.957Z,6.26
2022-12-29T23:58:11.002Z,6.28
